createdAt,value
2023-04-26T00:01:08.724Z,9.72
2023-04-26T00:03:40.933Z,9.72
2023-04-26T00:06:12.661Z,9.71
2023-04-26T00:08:43.600Z,9.73
2023-04-26T00:11:14.423Z,9.73
2023-04-26T00:13:47.897Z,9.72
2023-04-26T00:16:18.985Z,9.72
2023-04-26T00:18:50.705Z,9.71
2023-04-26T00:21:21.677Z,9.68
2023-04-26T00:23:52.709Z,9.66
2023-04-26T00:26:23.405Z,9.63
2023-04-26T00:28:56.754Z,9.61
2023-04-26T00:31:27.545Z,9.59
2023-04-26T00:33:58.356Z,9.58
2023-04-26T00:36:31.000Z,9.55
2023-04-26T00:39:03.017Z,9.54
2023-04-26T00:41:33.780Z,9.53
2023-04-26T00:44:07.689Z,9.52
2023-04-26T00:46:38.510Z,9.51
2023-04-26T00:49:10.056Z,9.48
2023-04-26T00:51:41.163Z,9.48
2023-04-26T00:54:12.362Z,9.47
2023-04-26T00:56:43.413Z,9.48
2023-04-26T00:59:16.832Z,9.47
2023-04-26T01:01:49.073Z,9.47
2023-04-26T01:04:20.310Z,9.46
2023-04-26T01:06:51.803Z,9.45
2023-04-26T01:09:22.581Z,9.44
2023-04-26T01:11:57.043Z,9.41
2023-04-26T01:14:30.923Z,9.38
2023-04-26T01:17:05.991Z,9.35
2023-04-26T01:19:37.862Z,9.36
2023-04-26T01:22:08.617Z,9.37
2023-04-26T01:24:43.788Z,9.35
2023-04-26T01:27:14.583Z,9.36
2023-04-26T01:29:46.512Z,9.37
2023-04-26T01:32:17.411Z,9.37
2023-04-26T01:34:48.319Z,9.36
2023-04-26T01:37:19.119Z,9.36
2023-04-26T01:39:52.450Z,9.38
2023-04-26T01:42:24.267Z,9.37
2023-04-26T01:44:54.900Z,9.37
2023-04-26T01:47:26.740Z,9.34
2023-04-26T01:49:57.500Z,9.33
2023-04-26T01:52:28.358Z,9.33
2023-04-26T01:55:01.784Z,9.31
2023-04-26T01:57:33.715Z,9.31
2023-04-26T02:00:05.359Z,9.28
2023-04-26T02:02:45.193Z,9.26
2023-04-26T02:05:16.121Z,9.25
2023-04-26T02:07:47.111Z,9.23
2023-04-26T02:10:20.633Z,9.21
2023-04-26T02:12:51.987Z,9.19
2023-04-26T02:15:23.953Z,9.19
2023-04-26T02:17:56.069Z,9.15
2023-04-26T02:20:27.135Z,9.12
2023-04-26T02:22:57.918Z,9.09
2023-04-26T02:25:31.424Z,9.06
2023-04-26T02:28:02.379Z,9.05
2023-04-26T02:30:33.346Z,9.03
2023-04-26T02:33:05.257Z,9.02
2023-04-26T02:35:35.955Z,9.03
2023-04-26T02:38:08.610Z,9.03
2023-04-26T02:40:42.031Z,9.03
2023-04-26T02:43:15.042Z,9.02
2023-04-26T02:45:46.247Z,9.00
2023-04-26T02:48:18.104Z,9.00
2023-04-26T02:50:50.662Z,8.93
2023-04-26T02:53:21.952Z,8.95
2023-04-26T02:55:55.358Z,8.93
2023-04-26T02:58:26.147Z,8.92
2023-04-26T03:00:59.491Z,8.88
2023-04-26T03:03:31.799Z,8.86
2023-04-26T03:06:02.680Z,8.84
2023-04-26T03:08:35.317Z,8.82
2023-04-26T03:11:09.175Z,8.80
2023-04-26T03:13:39.946Z,8.75
2023-04-26T03:16:11.997Z,8.71
2023-04-26T03:18:43.604Z,8.68
2023-04-26T03:21:14.531Z,8.67
2023-04-26T03:23:45.338Z,8.65
2023-04-26T03:26:20.029Z,8.67
2023-04-26T03:28:51.461Z,8.66
2023-04-26T03:31:23.288Z,8.65
2023-04-26T03:33:55.024Z,8.64
2023-04-26T03:36:25.924Z,8.63
2023-04-26T03:38:57.063Z,8.61
2023-04-26T03:41:30.888Z,8.62
2023-04-26T03:44:04.547Z,8.62
2023-04-26T03:46:35.956Z,8.61
2023-04-26T03:49:07.679Z,8.63
2023-04-26T03:51:38.741Z,8.64
2023-04-26T03:54:09.574Z,8.64
2023-04-26T03:56:43.044Z,8.62
2023-04-26T03:59:13.905Z,8.65
2023-04-26T04:01:44.800Z,8.64
2023-04-26T04:04:16.126Z,8.66
2023-04-26T04:06:48.111Z,8.67
2023-04-26T04:09:19.003Z,8.71
2023-04-26T04:11:52.389Z,8.72
2023-04-26T04:14:23.292Z,8.74
2023-04-26T04:16:54.029Z,8.77
2023-04-26T04:19:24.860Z,8.82
2023-04-26T04:21:56.001Z,8.85
2023-04-26T04:24:27.997Z,8.89
2023-04-26T04:27:02.073Z,8.92
2023-04-26T04:29:33.144Z,8.95
2023-04-26T04:32:04.194Z,8.98
2023-04-26T04:34:38.271Z,9.00
2023-04-26T04:37:09.136Z,9.02
2023-04-26T04:39:40.510Z,9.04
2023-04-26T04:42:13.969Z,9.07
2023-04-26T04:44:46.153Z,9.10
2023-04-26T04:47:18.292Z,9.07
2023-04-26T04:49:49.168Z,9.16
2023-04-26T04:52:21.742Z,9.18
2023-04-26T04:54:52.726Z,9.20
2023-04-26T04:57:26.051Z,9.24
2023-04-26T04:59:57.074Z,9.32
2023-04-26T05:02:28.711Z,9.48
2023-04-26T05:05:01.798Z,9.66
2023-04-26T05:07:34.759Z,9.92
2023-04-26T05:10:06.862Z,10.20
2023-04-26T05:12:40.323Z,10.45
2023-04-26T05:15:12.068Z,10.57
2023-04-26T05:17:45.410Z,10.61
2023-04-26T05:20:26.598Z,10.64
2023-04-26T05:22:59.129Z,10.61
2023-04-26T05:25:30.119Z,10.56
2023-04-26T05:28:13.027Z,10.49
2023-04-26T05:31:02.392Z,10.46
2023-04-26T05:33:50.960Z,10.46
2023-04-26T05:36:32.551Z,10.56
2023-04-26T05:39:03.307Z,10.79
2023-04-26T05:41:34.258Z,11.12
2023-04-26T05:44:07.728Z,11.56
2023-04-26T05:46:38.563Z,12.06
2023-04-26T05:49:12.397Z,12.55
2023-04-26T05:51:43.676Z,13.01
2023-04-26T05:54:15.788Z,13.52
2023-04-26T05:56:46.608Z,14.02
2023-04-26T05:59:20.019Z,14.54
2023-04-26T06:01:50.961Z,15.06
2023-04-26T06:04:22.045Z,15.55
2023-04-26T06:07:05.447Z,16.11
2023-04-26T06:09:36.316Z,16.52
2023-04-26T06:12:08.079Z,16.92
2023-04-26T06:14:46.033Z,17.38
2023-04-26T06:17:21.261Z,17.85
2023-04-26T06:19:52.550Z,18.22
2023-04-26T06:22:23.277Z,18.58
2023-04-26T06:24:54.316Z,18.98
2023-04-26T06:27:25.093Z,19.42
2023-04-26T06:29:58.564Z,19.86
2023-04-26T06:32:30.757Z,20.30
2023-04-26T06:35:02.474Z,20.74
2023-04-26T06:37:36.621Z,21.14
2023-04-26T06:40:09.127Z,21.48
2023-04-26T06:42:40.780Z,21.79
2023-04-26T06:45:22.958Z,22.14
2023-04-26T06:47:55.158Z,22.47
2023-04-26T06:50:28.417Z,22.82
2023-04-26T06:52:59.335Z,23.16
2023-04-26T06:55:30.039Z,23.32
2023-04-26T06:58:00.816Z,23.26
2023-04-26T07:00:34.513Z,23.12
2023-04-26T07:03:05.581Z,22.96
2023-04-26T07:05:36.651Z,22.82
2023-04-26T07:08:07.476Z,22.56
2023-04-26T07:10:38.587Z,22.53
2023-04-26T07:13:09.735Z,22.55
2023-04-26T07:15:43.431Z,22.57
2023-04-26T07:18:14.163Z,22.46
2023-04-26T07:20:45.171Z,22.46
2023-04-26T07:23:16.779Z,22.34
2023-04-26T07:25:47.745Z,21.99
2023-04-26T07:28:18.490Z,21.61
2023-04-26T07:30:52.030Z,21.36
2023-04-26T07:33:22.995Z,21.43
2023-04-26T07:35:59.171Z,21.63
2023-04-26T07:38:30.085Z,21.87
2023-04-26T07:41:01.608Z,22.10
2023-04-26T07:43:33.875Z,22.19
2023-04-26T07:46:07.404Z,22.13
2023-04-26T07:48:38.281Z,22.06
2023-04-26T07:51:13.563Z,21.87
2023-04-26T07:53:44.562Z,21.63
2023-04-26T07:56:15.718Z,21.28
2023-04-26T07:58:46.433Z,20.91
2023-04-26T08:01:19.830Z,20.60
2023-04-26T08:03:50.839Z,20.31
2023-04-26T08:06:22.563Z,20.04
2023-04-26T08:08:54.292Z,19.78
2023-04-26T08:11:25.228Z,19.55
2023-04-26T08:13:55.976Z,19.35
2023-04-26T08:16:29.501Z,19.10
2023-04-26T08:19:03.203Z,18.91
2023-04-26T08:21:34.123Z,18.93
2023-04-26T08:24:04.883Z,19.15
2023-04-26T08:26:35.976Z,19.30
2023-04-26T08:29:06.885Z,19.33
2023-04-26T08:31:40.369Z,19.25
2023-04-26T08:34:11.713Z,19.40
2023-04-26T08:36:42.826Z,19.63
2023-04-26T08:39:14.476Z,19.90
2023-04-26T08:41:47.217Z,20.02
2023-04-26T08:44:17.923Z,20.22
2023-04-26T08:47:01.907Z,20.31
2023-04-26T08:49:43.014Z,20.20
2023-04-26T08:52:16.410Z,20.08
2023-04-26T08:54:49.945Z,20.02
2023-04-26T08:57:21.815Z,19.98
2023-04-26T08:59:53.573Z,19.89
2023-04-26T09:02:27.688Z,19.81
2023-04-26T09:04:58.769Z,19.84
2023-04-26T09:07:34.728Z,19.88
2023-04-26T09:10:08.968Z,20.10
2023-04-26T09:12:39.886Z,20.20
2023-04-26T09:15:11.929Z,20.18
2023-04-26T09:17:46.423Z,20.03
2023-04-26T09:20:26.122Z,19.77
2023-04-26T09:23:07.540Z,19.62
2023-04-26T09:25:39.296Z,19.46
2023-04-26T09:28:23.438Z,19.38
2023-04-26T09:30:54.425Z,19.25
2023-04-26T09:33:27.777Z,19.09
2023-04-26T09:35:59.013Z,18.94
2023-04-26T09:38:29.781Z,18.83
2023-04-26T09:41:02.547Z,18.69
2023-04-26T09:43:40.904Z,18.54
2023-04-26T09:46:11.687Z,18.42
2023-04-26T09:48:46.623Z,18.35
2023-04-26T09:51:17.936Z,18.35
2023-04-26T09:53:51.435Z,18.33
2023-04-26T09:56:23.682Z,18.32
2023-04-26T09:59:05.308Z,18.35
2023-04-26T10:01:36.193Z,18.38
2023-04-26T10:04:10.345Z,18.39
2023-04-26T10:06:41.535Z,18.35
2023-04-26T10:09:12.481Z,18.34
2023-04-26T10:11:43.918Z,18.28
2023-04-26T10:14:15.403Z,18.24
2023-04-26T10:16:48.859Z,18.20
2023-04-26T10:19:22.847Z,18.16
2023-04-26T10:21:56.870Z,18.12
2023-04-26T10:24:27.781Z,18.06
2023-04-26T10:27:03.460Z,17.99
2023-04-26T10:30:04.713Z,17.92
2023-04-26T10:32:36.515Z,17.86
2023-04-26T10:35:18.079Z,17.82
2023-04-26T10:38:12.944Z,17.80
2023-04-26T10:40:46.038Z,17.79
2023-04-26T10:43:33.116Z,17.79
2023-04-26T10:46:41.278Z,17.74
2023-04-26T10:49:19.738Z,17.68
2023-04-26T10:52:23.414Z,17.61
2023-04-26T10:55:04.188Z,17.58
2023-04-26T10:57:52.999Z,17.54
2023-04-26T11:00:34.387Z,17.48
2023-04-26T11:03:13.642Z,17.41
2023-04-26T11:06:10.047Z,17.33
2023-04-26T11:08:40.741Z,17.27
2023-04-26T11:11:15.282Z,17.25
2023-04-26T11:13:47.320Z,17.25
2023-04-26T11:16:19.475Z,17.25
2023-04-26T11:18:51.169Z,17.25
2023-04-26T11:21:24.788Z,17.22
2023-04-26T11:23:59.061Z,17.17
2023-04-26T11:26:38.051Z,17.10
2023-04-26T11:29:13.907Z,17.05
2023-04-26T11:31:44.734Z,17.03
2023-04-26T11:34:15.535Z,16.97
2023-04-26T11:36:48.062Z,16.94
2023-04-26T11:39:19.024Z,16.93
2023-04-26T11:41:52.388Z,16.94
2023-04-26T11:44:23.304Z,16.93
2023-04-26T11:46:54.641Z,16.99
2023-04-26T11:49:25.687Z,17.10
2023-04-26T11:51:57.778Z,17.21
2023-04-26T11:54:33.229Z,17.36
2023-04-26T11:57:17.719Z,17.45
2023-04-26T11:59:49.517Z,17.48
2023-04-26T12:02:21.054Z,17.48
2023-04-26T12:05:04.289Z,17.48
2023-04-26T12:07:39.828Z,17.48
2023-04-26T12:10:21.064Z,17.53
2023-04-26T12:12:57.131Z,17.53
2023-04-26T12:15:31.686Z,17.50
2023-04-26T12:18:04.369Z,17.45
2023-04-26T12:20:36.478Z,17.37
2023-04-26T12:23:08.874Z,17.30
2023-04-26T12:25:41.126Z,17.27
2023-04-26T12:28:16.857Z,17.24
2023-04-26T12:30:47.687Z,17.18
2023-04-26T12:33:23.360Z,17.13
2023-04-26T12:35:54.537Z,17.05
2023-04-26T12:38:25.802Z,16.97
2023-04-26T12:40:56.718Z,16.89
2023-04-26T12:43:30.270Z,16.81
2023-04-26T12:46:01.072Z,16.76
2023-04-26T12:48:32.011Z,16.70
2023-04-26T12:51:02.675Z,16.61
2023-04-26T12:53:34.057Z,16.56
2023-04-26T12:56:04.941Z,16.52
2023-04-26T12:58:38.277Z,16.53
2023-04-26T13:01:09.486Z,16.56
2023-04-26T13:03:40.601Z,16.58
2023-04-26T13:06:11.878Z,16.60
2023-04-26T13:08:42.832Z,16.59
2023-04-26T13:11:13.562Z,16.64
2023-04-26T13:13:47.015Z,16.70
2023-04-26T13:16:17.763Z,16.78
2023-04-26T13:18:48.663Z,16.84
2023-04-26T13:21:19.465Z,16.88
2023-04-26T13:23:50.250Z,16.93
2023-04-26T13:26:21.019Z,17.01
2023-04-26T13:28:54.311Z,17.03
2023-04-26T13:31:25.223Z,17.03
2023-04-26T13:33:56.066Z,17.04
2023-04-26T13:36:26.806Z,17.05
2023-04-26T13:38:57.598Z,17.07
2023-04-26T13:41:29.671Z,17.10
2023-04-26T13:44:03.852Z,17.10
2023-04-26T13:46:34.872Z,17.12
2023-04-26T13:49:05.886Z,17.09
2023-04-26T13:51:36.606Z,17.03
2023-04-26T13:54:08.691Z,16.84
2023-04-26T13:56:39.654Z,16.82
2023-04-26T13:59:13.105Z,16.75
2023-04-26T14:01:44.219Z,16.67
2023-04-26T14:04:15.456Z,16.59
2023-04-26T14:06:46.404Z,16.55
2023-04-26T14:09:17.823Z,16.49
2023-04-26T14:11:57.171Z,16.42
2023-04-26T14:14:40.375Z,16.38
2023-04-26T14:17:11.606Z,16.37
2023-04-26T14:19:42.601Z,16.34
2023-04-26T14:22:15.007Z,16.39
2023-04-26T14:24:45.867Z,16.43
2023-04-26T14:27:16.682Z,16.41
2023-04-26T14:29:50.103Z,16.39
2023-04-26T14:32:20.876Z,16.38
2023-04-26T14:34:51.680Z,16.36
2023-04-26T14:37:23.150Z,16.30
2023-04-26T14:39:54.002Z,16.24
2023-04-26T14:42:24.803Z,16.19
2023-04-26T14:44:58.278Z,16.16
2023-04-26T14:47:29.619Z,16.07
2023-04-26T14:50:00.727Z,16.01
2023-04-26T14:52:31.720Z,15.94
2023-04-26T14:55:02.555Z,15.87
2023-04-26T14:57:35.002Z,15.80
2023-04-26T15:00:14.609Z,15.77
2023-04-26T15:02:45.893Z,15.75
2023-04-26T15:05:17.313Z,15.74
2023-04-26T15:07:48.299Z,15.76
2023-04-26T15:10:19.132Z,15.77
2023-04-26T15:12:49.884Z,15.78
2023-04-26T15:15:23.432Z,15.76
2023-04-26T15:17:54.143Z,15.74
2023-04-26T15:20:25.423Z,15.73
2023-04-26T15:22:56.242Z,15.71
2023-04-26T15:25:27.068Z,15.71
2023-04-26T15:27:58.159Z,15.72
2023-04-26T15:30:32.128Z,15.71
2023-04-26T15:33:03.517Z,15.73
2023-04-26T15:35:35.952Z,15.72
2023-04-26T15:38:06.654Z,15.72
2023-04-26T15:40:38.254Z,15.68
2023-04-26T15:43:09.153Z,15.63
2023-04-26T15:45:42.792Z,15.51
2023-04-26T15:48:14.589Z,15.54
2023-04-26T15:50:45.611Z,15.50
2023-04-26T15:53:16.594Z,15.45
2023-04-26T15:55:47.932Z,15.43
2023-04-26T15:58:18.686Z,15.39
2023-04-26T16:00:52.231Z,15.35
2023-04-26T16:03:23.656Z,15.32
2023-04-26T16:05:54.988Z,15.25
2023-04-26T16:08:39.344Z,15.17
2023-04-26T16:11:10.895Z,15.11
2023-04-26T16:13:41.689Z,15.03
2023-04-26T16:16:15.340Z,14.97
2023-04-26T16:18:46.355Z,14.93
2023-04-26T16:21:17.072Z,14.87
2023-04-26T16:23:49.908Z,14.80
2023-04-26T16:26:21.010Z,14.71
2023-04-26T16:28:53.057Z,14.64
2023-04-26T16:31:27.105Z,14.58
2023-04-26T16:33:58.094Z,14.57
2023-04-26T16:36:28.953Z,14.55
2023-04-26T16:38:59.758Z,14.53
2023-04-26T16:41:30.758Z,14.51
2023-04-26T16:44:01.615Z,14.47
2023-04-26T16:46:35.272Z,14.36
2023-04-26T16:49:09.726Z,14.35
2023-04-26T16:51:42.308Z,14.31
2023-04-26T16:54:13.175Z,14.29
2023-04-26T16:56:44.233Z,14.25
2023-04-26T16:59:15.404Z,14.22
2023-04-26T17:01:48.962Z,14.20
2023-04-26T17:04:19.988Z,14.19
2023-04-26T17:06:51.156Z,14.18
2023-04-26T17:09:21.939Z,14.13
2023-04-26T17:11:52.706Z,14.09
2023-04-26T17:14:23.749Z,14.01
2023-04-26T17:16:57.253Z,13.94
2023-04-26T17:19:28.164Z,13.89
2023-04-26T17:21:59.011Z,13.85
2023-04-26T17:24:29.725Z,13.82
2023-04-26T17:27:00.595Z,13.77
2023-04-26T17:29:31.337Z,13.74
2023-04-26T17:32:04.919Z,13.69
2023-04-26T17:34:37.184Z,13.61
2023-04-26T17:37:08.345Z,12.92
2023-04-26T17:39:39.095Z,12.03
2023-04-26T17:42:10.011Z,11.07
2023-04-26T17:44:40.792Z,10.24
2023-04-26T17:47:14.326Z,9.67
2023-04-26T17:49:45.140Z,9.34
2023-04-26T17:52:16.222Z,9.05
2023-04-26T17:54:46.967Z,8.80
2023-04-26T17:57:18.435Z,8.70
2023-04-26T17:59:49.249Z,8.65
2023-04-26T18:02:22.915Z,8.56
2023-04-26T18:04:54.063Z,8.64
2023-04-26T18:07:25.019Z,8.65
2023-04-26T18:09:55.747Z,8.66
2023-04-26T18:12:26.696Z,8.64
2023-04-26T18:14:57.549Z,8.63
2023-04-26T18:17:31.140Z,8.59
2023-04-26T18:20:02.256Z,8.59
2023-04-26T18:22:34.850Z,8.56
2023-04-26T18:25:05.645Z,8.75
2023-04-26T18:27:36.645Z,9.03
2023-04-26T18:30:08.682Z,9.11
2023-04-26T18:32:44.508Z,8.96
2023-04-26T18:35:15.374Z,8.89
2023-04-26T18:37:47.054Z,8.86
2023-04-26T18:40:18.135Z,8.84
2023-04-26T18:42:48.905Z,8.79
2023-04-26T18:45:19.827Z,8.70
2023-04-26T18:47:55.197Z,8.53
2023-04-26T18:50:26.471Z,8.51
2023-04-26T18:52:57.264Z,8.49
2023-04-26T18:55:29.019Z,8.57
2023-04-26T18:57:59.809Z,8.66
2023-04-26T19:00:30.705Z,8.76
2023-04-26T19:03:04.239Z,8.83
2023-04-26T19:05:35.101Z,8.85
2023-04-26T19:08:05.754Z,8.88
2023-04-26T19:10:36.652Z,8.93
2023-04-26T19:13:08.007Z,8.95
2023-04-26T19:15:38.839Z,8.89
2023-04-26T19:18:12.450Z,8.87
2023-04-26T19:20:43.348Z,8.80
2023-04-26T19:23:14.885Z,8.69
2023-04-26T19:25:47.017Z,8.56
2023-04-26T19:28:17.756Z,8.70
2023-04-26T19:30:48.672Z,8.83
2023-04-26T19:33:22.159Z,8.98
2023-04-26T19:35:53.037Z,9.15
2023-04-26T19:38:23.753Z,9.26
2023-04-26T19:40:54.776Z,9.40
2023-04-26T19:43:25.608Z,9.51
2023-04-26T19:45:56.442Z,9.60
2023-04-26T19:48:29.871Z,9.68
2023-04-26T19:51:01.179Z,9.75
2023-04-26T19:53:32.083Z,9.82
2023-04-26T19:56:03.485Z,9.86
2023-04-26T19:58:34.365Z,9.91
2023-04-26T20:01:05.412Z,9.95
2023-04-26T20:03:39.776Z,9.99
2023-04-26T20:06:12.027Z,10.04
2023-04-26T20:08:43.853Z,10.06
2023-04-26T20:11:15.620Z,10.06
2023-04-26T20:13:46.676Z,10.05
2023-04-26T20:16:17.415Z,10.03
2023-04-26T20:18:50.893Z,10.02
2023-04-26T20:21:21.809Z,10.02
2023-04-26T20:23:52.762Z,10.00
2023-04-26T20:26:23.547Z,9.96
2023-04-26T20:28:54.294Z,9.94
2023-04-26T20:31:25.264Z,9.94
2023-04-26T20:34:00.574Z,9.92
2023-04-26T20:36:31.757Z,9.92
2023-04-26T20:39:02.592Z,9.90
2023-04-26T20:41:33.314Z,9.86
2023-04-26T20:44:05.155Z,9.88
2023-04-26T20:46:36.203Z,9.87
2023-04-26T20:49:11.477Z,9.86
2023-04-26T20:51:42.722Z,9.83
2023-04-26T20:54:13.443Z,9.80
2023-04-26T20:56:44.345Z,9.77
2023-04-26T20:59:15.247Z,9.74
2023-04-26T21:01:46.132Z,9.73
2023-04-26T21:04:20.028Z,9.71
2023-04-26T21:06:51.049Z,9.66
2023-04-26T21:09:21.917Z,9.66
2023-04-26T21:11:52.777Z,9.66
2023-04-26T21:14:23.474Z,9.64
2023-04-26T21:16:54.386Z,9.64
2023-04-26T21:19:27.690Z,9.63
2023-04-26T21:21:58.374Z,9.61
2023-04-26T21:24:29.311Z,9.60
2023-04-26T21:27:00.152Z,9.57
2023-04-26T21:29:31.974Z,9.57
2023-04-26T21:32:02.938Z,9.51
2023-04-26T21:34:36.900Z,9.50
2023-04-26T21:37:07.837Z,9.23
2023-04-26T21:39:38.560Z,9.10
2023-04-26T21:42:09.506Z,8.82
2023-04-26T21:44:40.301Z,8.71
2023-04-26T21:47:11.311Z,8.50
2023-04-26T21:49:44.702Z,8.47
2023-04-26T21:52:15.562Z,8.38
2023-04-26T21:54:46.381Z,8.37
2023-04-26T21:57:17.173Z,8.28
2023-04-26T21:59:47.796Z,8.32
2023-04-26T22:02:18.689Z,8.24
2023-04-26T22:04:52.192Z,8.25
2023-04-26T22:07:23.153Z,8.15
2023-04-26T22:09:53.823Z,8.18
2023-04-26T22:12:24.589Z,8.13
2023-04-26T22:14:55.678Z,8.16
2023-04-26T22:17:26.692Z,8.06
2023-04-26T22:20:01.100Z,8.09
2023-04-26T22:22:34.438Z,8.04
2023-04-26T22:25:05.381Z,7.96
2023-04-26T22:27:36.543Z,7.80
2023-04-26T22:30:20.838Z,7.42
2023-04-26T22:32:58.109Z,6.77
2023-04-26T22:35:32.454Z,6.41
2023-04-26T22:38:03.590Z,6.21
2023-04-26T22:40:34.444Z,6.09
2023-04-26T22:43:05.530Z,6.00
2023-04-26T22:45:36.345Z,6.01
2023-04-26T22:48:07.804Z,6.05
2023-04-26T22:50:41.338Z,6.09
2023-04-26T22:53:12.213Z,6.10
2023-04-26T22:55:42.978Z,6.14
2023-04-26T22:58:14.025Z,6.07
2023-04-26T23:00:44.763Z,6.13
2023-04-26T23:03:15.745Z,6.11
2023-04-26T23:05:49.158Z,6.11
2023-04-26T23:08:19.967Z,6.08
2023-04-26T23:10:50.868Z,6.09
2023-04-26T23:13:21.950Z,6.09
2023-04-26T23:15:52.727Z,6.07
2023-04-26T23:18:23.585Z,6.05
2023-04-26T23:20:56.978Z,6.13
2023-04-26T23:23:27.853Z,6.30
2023-04-26T23:25:58.646Z,6.44
2023-04-26T23:28:29.459Z,6.57
2023-04-26T23:31:00.239Z,6.70
2023-04-26T23:33:31.142Z,6.83
2023-04-26T23:36:04.601Z,6.94
2023-04-26T23:38:35.686Z,7.04
2023-04-26T23:41:06.578Z,7.13
2023-04-26T23:43:37.368Z,7.22
2023-04-26T23:46:08.249Z,7.29
2023-04-26T23:48:39.089Z,7.36
2023-04-26T23:51:12.415Z,7.42
2023-04-26T23:53:43.057Z,7.46
2023-04-26T23:56:13.900Z,7.48
2023-04-26T23:58:44.745Z,7.51
